Time;durP1;ratioP1;P1;durP2;ratioP2;P2;SDS_P1;SDS_P2;PMS_P1;PMS_P2;Temp;Humidity;BMP_temperature;BMP_pressure;BME280_temperature;BME280_humidity;BME280_pressure;Samples;Min_cycle;Max_cycle;Signal;HPM_P1;HPM_P2
2021/06/22 00:00:46;;;;;;;27.29;9.78;;;;;;;25.27;61.91;99114.97;371833;107;1962047;-71
2021/06/22 00:02:01;;;;;;;28.46;10.29;;;;;;;25.13;61.97;99081.83;392218;103;2012071;-71
2021/06/22 00:03:06;;;;;;;25.94;10.16;;;;;;;25.20;61.98;99118.16;372849;107;1961988;-71
2021/06/22 00:04:19;;;;;;;29.01;11.08;;;;;;;25.21;62.14;99116.21;389155;103;2073062;-72
2021/06/22 00:05:26;;;;;;;29.72;10.29;;;;;;;25.00;62.41;99110.36;374597;105;1962015;-69
2021/06/22 00:06:39;;;;;;;27.16;10.63;;;;;;;24.97;62.79;99105.47;396930;103;1986949;-70
2021/06/22 00:07:45;;;;;;;25.54;10.72;;;;;;;24.75;63.05;99109.87;373997;107;1962999;-71
2021/06/22 00:09:08;;;;;;;32.06;11.90;;;;;;;24.65;63.42;99101.83;373032;107;1962016;-72
2021/06/22 00:10:24;;;;;;;33.71;11.52;;;;;;;24.65;63.93;99098.26;389920;104;2080039;-72
2021/06/22 00:11:29;;;;;;;26.36;10.57;;;;;;;24.47;64.11;99100.05;377123;107;1962068;-70
2021/06/22 00:12:35;;;;;;;33.71;11.56;;;;;;;24.39;64.38;99100.77;377863;107;1962873;-70
2021/06/22 00:13:42;;;;;;;34.52;11.74;;;;;;;24.33;64.61;99097.31;379491;105;1962067;-71
2021/06/22 00:14:47;;;;;;;35.55;10.42;;;;;;;24.28;64.79;99106.52;374409;106;1961995;-72
2021/06/22 00:16:00;;;;;;;33.64;10.61;;;;;;;24.33;65.18;99102.83;368026;104;2862020;-70
2021/06/22 00:17:06;;;;;;;32.19;11.08;;;;;;;24.19;65.22;99108.39;355020;107;1961918;-71
2021/06/22 00:18:11;;;;;;;34.87;10.83;;;;;;;24.15;65.40;99110.13;350929;110;1961953;-71
2021/06/22 00:19:23;;;;;;;26.84;10.75;;;;;;;24.22;65.65;99104.19;394002;104;1985949;-71
2021/06/22 00:20:31;;;;;;;34.84;11.31;;;;;;;24.07;65.71;99110.85;372794;105;1963998;-71
2021/06/22 00:21:36;;;;;;;34.82;11.01;;;;;;;24.04;65.89;99111.47;377393;105;1962950;-71
2021/06/22 00:22:49;;;;;;;34.96;12.26;;;;;;;24.13;66.19;99104.09;391307;104;1987028;-71
2021/06/22 00:24:01;;;;;;;43.83;12.02;;;;;;;24.09;66.29;99109.42;376747;108;1965055;-72
2021/06/22 00:25:25;;;;;;;37.14;12.22;;;;;;;23.97;66.29;99113.83;357292;110;1963061;-71
2021/06/22 00:26:57;;;;;;;40.79;12.08;;;;;;;24.04;66.67;99103.20;415449;99;1985997;-71
2021/06/22 00:28:02;;;;;;;35.34;11.11;;;;;;;23.90;66.64;99108.73;395975;101;1961783;-72
2021/06/22 00:29:16;;;;;;;46.36;13.48;;;;;;;24.00;66.82;99105.77;349126;104;2790906;-72
2021/06/22 00:30:24;;;;;;;36.66;12.82;;;;;;;23.88;66.89;99102.70;373755;107;1962053;-72
2021/06/22 00:31:48;;;;;;;39.88;13.42;;;;;;;23.85;66.98;99109.66;374484;105;1962029;-71
2021/06/22 00:32:54;;;;;;;48.72;14.74;;;;;;;23.84;67.12;99101.67;377912;105;1961965;-72
2021/06/22 00:34:06;;;;;;;45.34;14.07;;;;;;;23.93;67.26;99101.79;389904;104;2073934;-71
2021/06/22 00:35:14;;;;;;;40.90;13.69;;;;;;;23.81;67.28;99103.10;373051;107;1962033;-71
2021/06/22 00:36:20;;;;;;;46.26;12.75;;;;;;;23.79;67.34;99105.38;374369;106;1962037;-72
2021/06/22 00:37:32;;;;;;;46.44;13.08;;;;;;;23.88;67.41;99105.46;380847;108;1985928;-71
2021/06/22 00:38:38;;;;;;;46.42;11.89;;;;;;;23.73;67.36;99101.06;356268;113;1963012;-71
2021/06/22 00:39:50;;;;;;;45.46;14.04;;;;;;;23.82;67.57;99099.23;395504;101;2072997;-70
2021/06/22 00:40:55;;;;;;;52.16;13.91;;;;;;;23.68;67.52;99101.14;381446;105;1970011;-72
2021/06/22 00:42:19;;;;;;;51.62;13.69;;;;;;;23.65;67.68;99097.05;372159;105;2852018;-71
2021/06/22 00:43:32;;;;;;;48.56;13.34;;;;;;;23.72;67.86;99099.45;384856;105;1995074;-72
2021/06/22 00:44:54;;;;;;;50.19;13.15;;;;;;;23.58;67.91;99102.17;369263;109;1961908;-71
2021/06/22 00:46:06;;;;;;;46.22;13.28;;;;;;;23.65;68.17;99102.56;375962;104;2851003;-71
2021/06/22 00:47:12;;;;;;;52.52;14.97;;;;;;;23.55;68.07;99108.30;333777;107;2889002;-71
2021/06/22 00:48:17;;;;;;;44.72;14.09;;;;;;;23.54;68.07;99100.33;322842;107;2188872;-71
2021/06/22 00:49:29;;;;;;;49.16;13.89;;;;;;;23.63;68.28;99107.59;393344;104;1985983;-71
2021/06/22 00:50:36;;;;;;;59.46;14.66;;;;;;;23.49;68.29;99106.75;374984;105;1962027;-71
2021/06/22 00:51:44;;;;;;;54.10;14.27;;;;;;;23.45;68.45;99103.80;373823;107;1961940;-71
2021/06/22 00:52:56;;;;;;;60.42;15.71;;;;;;;23.55;68.74;99102.80;390106;104;1987081;-72
2021/06/22 00:54:04;;;;;;;63.56;15.61;;;;;;;23.40;68.76;99103.89;356825;107;2918824;-72
2021/06/22 00:56:46;;;;;;;59.28;15.07;;;;;;;23.53;69.11;99101.47;332023;104;2350055;-73
2021/06/22 00:58:10;;;;;;;62.09;15.83;;;;;;;23.40;69.04;99098.38;362579;111;1961912;-71
2021/06/22 00:59:22;;;;;;;45.24;13.61;;;;;;;23.52;69.17;99097.05;392227;104;1961973;-72
2021/06/22 01:00:35;;;;;;;54.75;14.57;;;;;;;23.40;69.13;99097.56;328142;107;2560039;-72
2021/06/22 01:01:48;;;;;;;61.13;14.75;;;;;;;23.52;69.20;99102.56;343564;103;2237964;-71
2021/06/22 01:02:55;;;;;;;61.42;14.22;;;;;;;23.39;69.15;99104.18;369132;105;1962012;-72
2021/06/22 01:04:24;;;;;;;61.07;15.03;;;;;;;23.38;69.19;99114.39;332034;109;2541884;-72
2021/06/22 01:05:36;;;;;;;70.84;16.22;;;;;;;23.49;69.19;99102.05;395144;103;1962933;-70
2021/06/22 01:06:42;;;;;;;63.90;15.56;;;;;;;23.36;69.10;99105.61;375029;105;1968918;-71
2021/06/22 01:07:58;;;;;;;70.03;17.46;;;;;;;23.48;69.18;99099.61;390528;104;1986889;-70
2021/06/22 01:09:05;;;;;;;72.04;16.16;;;;;;;23.36;69.15;99102.04;369664;108;1961983;-70
2021/06/22 01:10:17;;;;;;;71.56;16.41;;;;;;;23.45;69.39;99100.23;407752;101;1987002;-70
2021/06/22 01:11:25;;;;;;;68.97;16.63;;;;;;;23.32;69.37;99099.09;391852;103;1961934;-71
2021/06/22 01:12:50;;;;;;;66.98;15.83;;;;;;;23.31;69.39;99102.13;387516;103;1964021;-70
2021/06/22 01:14:03;;;;;;;71.56;16.96;;;;;;;23.40;69.63;99100.33;403013;101;1987043;-71
2021/06/22 01:15:17;;;;;;;69.56;15.08;;;;;;;23.38;69.68;99105.31;405718;102;1985897;-71
2021/06/22 01:16:45;;;;;;;65.19;15.32;;;;;;;23.26;69.56;99103.88;386913;103;1961994;-71
2021/06/22 01:17:56;;;;;;;64.99;17.39;;;;;;;23.24;69.62;99110.81;385028;105;1964042;-69
2021/06/22 01:19:09;;;;;;;73.67;17.43;;;;;;;23.33;69.83;99100.70;340449;106;2219002;-71
2021/06/22 01:20:30;;;;;;;66.05;15.79;;;;;;;23.20;69.83;99099.56;368523;109;1964071;-71
2021/06/22 01:21:41;;;;;;;65.30;17.81;;;;;;;23.30;70.03;99106.02;375763;104;1985930;-70
2021/06/22 01:22:48;;;;;;;72.21;14.82;;;;;;;23.16;69.99;99109.56;378572;105;1962017;-70
2021/06/22 01:24:18;;;;;;;66.12;15.17;;;;;;;23.14;70.15;99105.48;380759;105;1962017;-71
2021/06/22 01:25:38;;;;;;;78.69;17.51;;;;;;;23.19;70.39;99086.91;357464;104;2613039;-70
2021/06/22 01:26:47;;;;;;;68.17;14.96;;;;;;;23.23;70.38;99106.41;376424;105;1961920;-71
2021/06/22 01:28:00;;;;;;;63.19;15.78;;;;;;;23.42;70.23;99100.84;385943;106;1987111;-71
2021/06/22 01:29:14;;;;;;;58.07;14.31;;;;;;;23.53;70.01;99094.00;344659;106;2869013;-70
2021/06/22 01:30:27;;;;;;;55.54;14.37;;;;;;;23.53;69.73;99098.70;361960;111;1961999;-71
2021/06/22 01:31:38;;;;;;;67.21;14.85;;;;;;;23.63;69.46;99090.20;361170;109;1962052;-71
2021/06/22 01:32:51;;;;;;;61.81;15.40;;;;;;;23.93;68.82;99093.52;376273;103;1985976;-70
2021/06/22 01:33:56;;;;;;;73.61;16.26;;;;;;;23.93;68.24;99088.00;371984;107;1963061;-70
2021/06/22 01:35:09;;;;;;;66.92;16.38;;;;;;;24.09;67.68;99084.59;386994;106;1984807;-71
2021/06/22 01:36:19;;;;;;;64.76;15.19;;;;;;;23.99;67.66;99082.05;321248;109;2890608;-71
2021/06/22 01:37:52;;;;;;;76.02;18.95;;;;;;;24.01;67.45;99077.04;369858;108;1960788;-72
2021/06/22 01:39:06;;;;;;;75.94;16.11;;;;;;;24.17;67.08;99069.23;395581;104;1985805;-71
2021/06/22 01:40:13;;;;;;;64.73;15.94;;;;;;;24.10;66.90;99071.59;324363;107;2213902;-72
2021/06/22 01:41:25;;;;;;;70.53;16.45;;;;;;;24.24;66.72;99066.88;397085;104;1960644;-71
2021/06/22 01:42:37;;;;;;;67.09;15.54;;;;;;;24.12;66.63;99063.84;379535;105;1961944;-71
2021/06/22 01:43:50;;;;;;;66.49;17.44;;;;;;;24.22;66.66;99068.31;331816;103;2340975;-72
2021/06/22 01:44:57;;;;;;;65.97;15.87;;;;;;;24.10;66.70;99060.56;376328;107;1963967;-72
2021/06/22 01:46:09;;;;;;;78.20;16.44;;;;;;;24.13;66.78;99054.42;394472;104;1973019;-71
2021/06/22 01:47:21;;;;;;;67.77;16.91;;;;;;;24.02;66.97;99051.08;396834;104;2071975;-70
2021/06/22 01:48:45;;;;;;;69.96;15.63;;;;;;;23.84;67.18;99052.87;375211;105;1962076;-71
2021/06/22 01:50:01;;;;;;;69.41;16.73;;;;;;;23.81;67.66;99053.45;386507;105;1972071;-71
2021/06/22 01:51:13;;;;;;;63.49;15.88;;;;;;;23.70;68.10;99050.07;391162;104;1986048;-69
2021/06/22 01:52:19;;;;;;;64.85;18.76;;;;;;;23.52;68.17;99052.95;375862;106;1961941;-71
2021/06/22 01:53:32;;;;;;;72.80;17.41;;;;;;;23.53;68.61;99046.33;386564;106;1985984;-71
2021/06/22 01:54:39;;;;;;;60.65;16.78;;;;;;;23.34;68.77;99052.75;366229;109;1961965;-71
2021/06/22 01:55:52;;;;;;;68.00;15.14;;;;;;;23.37;69.16;99054.09;402152;101;1986958;-70
2021/06/22 01:56:58;;;;;;;58.43;14.43;;;;;;;23.21;69.17;99059.88;382316;105;1961958;-71
2021/06/22 01:58:24;;;;;;;65.48;15.67;;;;;;;23.15;69.66;99052.00;378978;107;1961956;-70
2021/06/22 01:59:40;;;;;;;68.48;16.58;;;;;;;23.07;69.77;99055.46;382575;103;1962032;-69
2021/06/22 02:00:55;;;;;;;66.62;16.94;;;;;;;23.09;70.18;99062.30;394906;104;1986017;-71
2021/06/22 02:02:27;;;;;;;71.46;16.22;;;;;;;23.03;70.55;99056.07;414096;99;1986007;-72
2021/06/22 02:03:50;;;;;;;64.02;16.88;;;;;;;22.90;70.46;99054.08;373235;103;2860991;-70
2021/06/22 02:05:04;;;;;;;64.19;16.60;;;;;;;22.97;70.80;99056.45;374210;109;2072843;-71
2021/06/22 02:06:10;;;;;;;65.11;14.79;;;;;;;22.85;71.18;99059.67;362013;112;1962012;-72
2021/06/22 02:07:53;;;;;;;57.97;14.28;;;;;;;22.87;71.24;99053.88;359322;110;1961851;-72
2021/06/22 02:09:06;;;;;;;71.12;15.29;;;;;;;23.04;71.12;99062.39;394954;104;1964057;-73
2021/06/22 02:10:13;;;;;;;62.13;15.81;;;;;;;22.98;71.05;99058.91;374125;107;1960995;-72
2021/06/22 02:11:37;;;;;;;62.47;15.41;;;;;;;23.06;70.97;99059.34;374376;107;1960916;-70
2021/06/22 02:12:56;;;;;;;71.73;15.22;;;;;;;23.26;70.81;99067.24;393593;104;1986075;-70
2021/06/22 02:14:05;;;;;;;66.66;14.28;;;;;;;23.22;70.71;99075.28;369762;107;1963074;-71
2021/06/22 02:15:12;;;;;;;72.27;15.28;;;;;;;23.30;70.36;99070.20;373812;105;1961988;-71
2021/06/22 02:16:27;;;;;;;64.38;14.93;;;;;;;23.49;70.00;99079.99;396758;104;1995046;-71
2021/06/22 02:17:35;;;;;;;75.47;17.21;;;;;;;23.42;70.08;99076.03;335859;105;2151981;-69
2021/06/22 02:18:47;;;;;;;73.47;15.58;;;;;;;23.59;69.55;99078.98;391099;106;1971869;-71
2021/06/22 02:19:55;;;;;;;73.52;16.89;;;;;;;23.50;69.55;99075.33;332785;107;2757016;-72
2021/06/22 02:21:21;;;;;;;75.54;18.74;;;;;;;23.49;69.38;99079.18;325090;110;2605033;-70
2021/06/22 02:22:37;;;;;;;;;;;;;;;;;;;;;
2021/06/22 02:23:42;;;;;;;82.18;18.52;;;;;;;23.49;69.46;99068.16;334869;108;2853056;-71
2021/06/22 02:24:49;;;;;;;97.09;20.52;;;;;;;23.32;69.52;99073.47;358116;110;1961923;-71
2021/06/22 02:26:03;;;;;;;95.29;22.79;;;;;;;23.38;69.69;99073.05;389389;106;1986007;-71
2021/06/22 02:27:08;;;;;;;88.06;20.62;;;;;;;23.23;69.80;99074.18;308177;110;2228051;-71
2021/06/22 02:28:34;;;;;;;94.74;19.56;;;;;;;23.18;69.78;99071.52;322698;111;2620994;-71
2021/06/22 02:29:46;;;;;;;77.03;18.43;;;;;;;23.24;70.15;99066.72;387636;106;1964953;-71
2021/06/22 02:30:54;;;;;;;94.22;19.07;;;;;;;23.09;70.07;99065.05;369390;107;1961968;-71
2021/06/22 02:32:07;;;;;;;84.41;19.48;;;;;;;23.17;70.40;99063.54;396842;104;1986970;-70
2021/06/22 02:33:13;;;;;;;87.36;19.36;;;;;;;23.04;70.42;99056.88;375026;106;1962053;-71
2021/06/22 02:34:26;;;;;;;80.32;18.97;;;;;;;23.18;70.69;99057.73;381494;106;2071979;-69
2021/06/22 02:35:32;;;;;;;84.23;18.36;;;;;;;23.12;70.63;99063.63;358219;108;2858032;-71
2021/06/22 02:36:44;;;;;;;95.43;20.65;;;;;;;23.30;70.47;99059.98;391149;104;2071822;-72
2021/06/22 02:37:51;;;;;;;88.78;19.09;;;;;;;23.23;70.37;99057.64;375522;106;1969976;-72
2021/06/22 02:39:15;;;;;;;82.43;17.59;;;;;;;23.29;70.25;99061.12;370113;107;1962959;-71
2021/06/22 02:40:27;;;;;;;89.94;18.20;;;;;;;23.46;69.93;99053.05;393271;104;1986062;-70
2021/06/22 02:41:35;;;;;;;88.18;18.78;;;;;;;23.37;69.85;99060.41;373511;106;1961999;-70
2021/06/22 02:42:47;;;;;;;93.58;20.44;;;;;;;23.56;69.57;99059.49;381316;104;2072901;-71
2021/06/22 02:43:53;;;;;;;83.45;19.47;;;;;;;23.51;69.32;99062.34;373045;107;1964041;-71
2021/06/22 02:45:19;;;;;;;82.35;20.19;;;;;;;23.49;69.13;99055.19;372186;107;1961964;-71
2021/06/22 02:46:32;;;;;;;99.84;20.56;;;;;;;23.58;68.98;99058.06;400622;103;1986983;-72
2021/06/22 02:47:38;;;;;;;92.04;20.45;;;;;;;23.44;68.97;99054.47;297845;108;2423993;-72
2021/06/22 02:48:50;;;;;;;110.99;24.32;;;;;;;23.56;68.98;99056.73;382259;106;2071901;-72
2021/06/22 02:49:55;;;;;;;93.24;21.69;;;;;;;23.40;68.93;99043.25;369369;107;1963017;-72
2021/06/22 02:51:20;;;;;;;94.20;22.51;;;;;;;23.38;68.97;99052.95;332420;108;2647028;-71
2021/06/22 02:52:32;;;;;;;95.92;21.34;;;;;;;23.45;69.08;99043.16;390967;104;2070656;-70
2021/06/22 02:53:37;;;;;;;105.19;21.34;;;;;;;23.32;69.01;99049.48;372101;107;1960909;-71
2021/06/22 02:54:42;;;;;;;102.86;21.74;;;;;;;23.29;69.11;99046.50;371682;107;1962025;-70
2021/06/22 02:55:55;;;;;;;92.94;22.26;;;;;;;23.38;69.23;99056.52;383476;104;2932834;-71
2021/06/22 02:57:03;;;;;;;100.90;21.46;;;;;;;23.27;69.23;99063.35;363107;109;1960819;-70
2021/06/22 02:58:16;;;;;;;93.56;20.74;;;;;;;23.35;69.25;99053.56;390792;104;1973041;-70
2021/06/22 02:59:25;;;;;;;108.09;22.28;;;;;;;23.21;69.20;99057.13;364187;111;1962060;-72
2021/06/22 03:00:49;;;;;;;101.78;20.43;;;;;;;23.21;69.29;99059.07;366715;107;1963952;-69
2021/06/22 03:02:01;;;;;;;103.32;21.12;;;;;;;23.32;69.29;99054.99;403086;101;1986000;-68
2021/06/22 03:03:10;;;;;;;91.89;20.34;;;;;;;23.21;69.24;99061.83;358584;105;2839896;-70
2021/06/22 03:04:22;;;;;;;97.96;24.71;;;;;;;23.32;69.37;99062.45;394419;103;1986890;-70
2021/06/22 03:05:27;;;;;;;99.66;22.63;;;;;;;23.20;69.21;99069.25;374819;107;1962056;-70
2021/06/22 03:06:52;;;;;;;111.52;21.03;;;;;;;23.20;69.24;99072.00;374357;106;1963029;-71
2021/06/22 03:08:03;;;;;;;96.24;21.30;;;;;;;23.20;69.35;99071.20;374674;106;1962104;-70
2021/06/22 03:09:15;;;;;;;92.42;21.71;;;;;;;23.29;69.40;99066.62;392520;104;1986056;-72
2021/06/22 03:10:24;;;;;;;103.01;21.44;;;;;;;23.19;69.43;99066.81;381115;106;1962025;-71
2021/06/22 03:11:30;;;;;;;101.71;21.41;;;;;;;23.18;69.39;99063.25;368403;107;1962093;-70
2021/06/22 03:12:43;;;;;;;99.46;23.34;;;;;;;23.29;69.63;99074.89;340825;106;2193967;-71
2021/06/22 03:13:50;;;;;;;100.12;22.26;;;;;;;23.17;69.45;99075.38;366622;108;1964021;-70
2021/06/22 03:15:09;;;;;;;106.68;23.37;;;;;;;23.27;69.78;99063.35;355275;105;2574055;-71
2021/06/22 03:16:14;;;;;;;98.76;21.78;;;;;;;23.15;69.66;99074.85;360701;110;1961857;-72
2021/06/22 03:17:26;;;;;;;83.21;20.33;;;;;;;23.23;69.82;99071.42;393795;104;1986007;-72
2021/06/22 03:18:33;;;;;;;84.29;21.23;;;;;;;23.14;69.68;99070.47;368968;108;1964048;-71
2021/06/22 03:19:45;;;;;;;98.64;22.92;;;;;;;23.28;69.80;99073.24;387015;106;1963086;-71
2021/06/22 03:20:52;;;;;;;95.57;19.98;;;;;;;23.18;69.69;99077.03;370732;108;1969929;-72
2021/06/22 03:22:16;;;;;;;105.19;23.37;;;;;;;23.19;69.60;99075.08;308993;109;2273990;-72
2021/06/22 03:23:22;;;;;;;89.16;21.29;;;;;;;23.19;69.55;99073.14;370317;109;1962948;-71
2021/06/22 03:24:35;;;;;;;96.32;21.69;;;;;;;23.31;69.57;99067.12;393688;104;1985911;-72
2021/06/22 03:25:42;;;;;;;97.20;21.07;;;;;;;23.22;69.50;99074.47;374670;107;1961965;-71
2021/06/22 03:26:54;;;;;;;94.21;20.79;;;;;;;23.34;69.56;99076.72;393197;103;1972989;-73
2021/06/22 03:28:03;;;;;;;80.65;21.41;;;;;;;23.24;69.44;99078.55;373738;107;1964028;-73
2021/06/22 03:29:16;;;;;;;95.21;22.97;;;;;;;23.39;69.35;99079.37;387892;106;1985999;-72
2021/06/22 03:30:33;;;;;;;90.18;22.29;;;;;;;23.30;69.31;99078.47;366044;108;1961986;-72
2021/06/22 03:31:56;;;;;;;92.89;20.67;;;;;;;23.32;69.26;99088.06;365963;109;1961995;-73
2021/06/22 03:33:09;;;;;;;85.91;20.38;;;;;;;23.48;69.19;99085.83;376183;108;1986153;-72
2021/06/22 03:34:15;;;;;;;96.87;20.91;;;;;;;23.38;69.03;99080.52;304339;113;2485988;-71
2021/06/22 03:35:20;;;;;;;94.48;20.33;;;;;;;23.42;68.87;99081.55;327305;115;1965066;-72
2021/06/22 03:36:32;;;;;;;84.31;20.25;;;;;;;23.56;68.73;99078.79;375308;108;1987019;-73
2021/06/22 03:37:39;;;;;;;89.52;21.59;;;;;;;23.48;68.55;99088.59;359468;110;1961965;-73
2021/06/22 03:38:45;;;;;;;87.69;21.21;;;;;;;23.51;68.42;99090.73;355073;109;1964043;-73
2021/06/22 03:39:52;;;;;;;80.43;20.56;;;;;;;23.54;68.28;99086.55;319752;112;2058050;-73
2021/06/22 03:40:58;;;;;;;79.87;20.59;;;;;;;23.57;68.22;99092.25;339640;111;1964958;-73
2021/06/22 03:42:06;;;;;;;93.91;20.53;;;;;;;23.59;68.10;99084.50;354369;111;1965743;-73
2021/06/22 03:43:21;;;;;;;78.93;19.91;;;;;;;23.75;67.92;99093.31;318213;104;2417048;-71
2021/06/22 03:44:33;;;;;;;90.26;19.42;;;;;;;23.69;67.71;99097.27;370815;108;1962982;-72
2021/06/22 03:45:46;;;;;;;76.49;21.22;;;;;;;23.82;67.45;99093.72;394823;103;1985940;-72
2021/06/22 03:46:52;;;;;;;93.54;20.44;;;;;;;23.74;67.41;99101.87;372876;106;1962998;-72
2021/06/22 03:48:15;;;;;;;84.33;20.39;;;;;;;23.76;67.20;99094.94;365288;109;1964002;-73
2021/06/22 03:49:21;;;;;;;74.12;17.74;;;;;;;23.81;66.88;99103.10;369106;107;1961961;-72
2021/06/22 03:50:27;;;;;;;77.31;18.42;;;;;;;23.85;66.68;99095.86;370059;110;1961985;-72
2021/06/22 03:51:49;;;;;;;84.87;19.93;;;;;;;24.00;66.55;99093.89;381931;108;1985872;-72
2021/06/22 03:52:56;;;;;;;96.04;21.41;;;;;;;23.90;66.46;99093.00;285057;113;2352094;-73
2021/06/22 03:54:09;;;;;;;79.44;20.84;;;;;;;24.04;66.39;99095.73;376591;108;2070868;-71
2021/06/22 03:55:28;;;;;;;86.27;20.73;;;;;;;24.08;66.27;99090.41;390824;104;1985865;-71
2021/06/22 03:56:54;;;;;;;88.43;19.63;;;;;;;23.99;66.19;99092.27;375180;107;1962007;-73
2021/06/22 03:58:06;;;;;;;82.79;20.00;;;;;;;24.15;65.95;99082.53;386854;106;2072934;-73
2021/06/22 03:59:14;;;;;;;92.91;21.83;;;;;;;24.07;65.83;99086.83;310064;108;2295539;-71
2021/06/22 04:00:38;;;;;;;90.03;19.02;;;;;;;24.09;65.69;99086.53;356229;110;2848115;-71
2021/06/22 04:01:50;;;;;;;96.12;21.48;;;;;;;24.23;65.37;99075.45;396095;104;1988923;-70
2021/06/22 04:02:59;;;;;;;78.17;18.85;;;;;;;24.14;65.34;99078.14;373588;106;1962020;-70
2021/06/22 04:04:11;;;;;;;85.91;18.86;;;;;;;24.28;65.19;99073.39;372603;106;1986041;-71
2021/06/22 04:05:21;;;;;;;72.87;18.22;;;;;;;24.20;65.20;99071.37;329597;107;2713969;-71
2021/06/22 04:06:35;;;;;;;88.67;18.47;;;;;;;24.36;64.99;99077.36;395657;104;1985915;-71
2021/06/22 04:07:43;;;;;;;78.92;18.77;;;;;;;24.27;64.89;99082.81;373600;107;1961889;-71
2021/06/22 04:09:07;;;;;;;79.06;18.92;;;;;;;24.30;64.77;99081.38;306580;107;2484896;-72
2021/06/22 04:10:20;;;;;;;83.42;20.44;;;;;;;24.44;64.76;99081.33;400819;101;2072955;-72
2021/06/22 04:11:28;;;;;;;75.46;17.94;;;;;;;24.34;64.68;99076.84;380074;105;1961915;-72
2021/06/22 04:12:41;;;;;;;74.57;17.41;;;;;;;24.48;64.54;99077.66;392150;104;1985897;-71
2021/06/22 04:13:53;;;;;;;84.59;20.23;;;;;;;24.50;64.42;99071.81;384315;104;3064021;-72
2021/06/22 04:15:19;;;;;;;83.20;20.36;;;;;;;24.40;64.33;99077.54;379255;105;1962007;-72
2021/06/22 04:16:25;;;;;;;75.77;17.92;;;;;;;24.42;64.15;99072.53;344202;105;2061995;-72
2021/06/22 04:17:38;;;;;;;81.47;18.93;;;;;;;24.55;63.98;99074.45;394735;104;2071942;-70
2021/06/22 04:18:44;;;;;;;78.82;18.28;;;;;;;24.46;63.83;99076.34;364421;110;1964023;-72
2021/06/22 04:19:56;;;;;;;70.06;17.72;;;;;;;24.59;63.87;99075.48;347690;104;2206006;-71
2021/06/22 04:21:04;;;;;;;76.09;17.12;;;;;;;24.52;63.76;99075.09;356120;106;1961767;-73
2021/06/22 04:22:16;;;;;;;81.97;18.47;;;;;;;24.67;63.38;99083.01;394032;104;1986858;-71
2021/06/22 04:23:24;;;;;;;76.00;19.42;;;;;;;24.56;63.31;99074.16;377233;106;1962077;-72
2021/06/22 04:24:48;;;;;;;77.36;18.42;;;;;;;24.58;63.29;99079.34;317223;110;2824999;-72
2021/06/22 04:26:01;;;;;;;69.94;17.78;;;;;;;24.73;63.05;99080.93;395814;104;1961962;-72
2021/06/22 04:27:07;;;;;;;67.56;18.32;;;;;;;24.66;62.99;99075.83;378416;107;1970945;-71
2021/06/22 04:28:20;;;;;;;76.78;18.99;;;;;;;24.82;62.81;99080.98;357297;104;2634987;-71
2021/06/22 04:29:25;;;;;;;73.90;21.09;;;;;;;24.73;62.60;99081.74;352529;107;1962875;-71
2021/06/22 04:30:50;;;;;;;71.44;17.77;;;;;;;24.74;62.56;99077.87;376777;106;1962003;-71
2021/06/22 04:32:02;;;;;;;57.63;17.32;;;;;;;24.90;62.32;99089.34;386094;106;1961955;-71
2021/06/22 04:33:08;;;;;;;80.95;16.87;;;;;;;24.83;62.21;99088.97;370171;109;1970016;-72
2021/06/22 04:34:27;;;;;;;62.86;18.33;;;;;;;24.98;62.05;99094.11;363724;104;2087988;-73
2021/06/22 04:35:33;;;;;;;63.65;17.79;;;;;;;24.91;61.89;99102.02;327864;107;2158965;-73
2021/06/22 04:36:58;;;;;;;79.09;17.49;;;;;;;24.95;61.69;99102.20;315259;107;2276839;-71
2021/06/22 04:38:05;;;;;;;66.97;16.61;;;;;;;24.99;61.61;99095.73;340572;107;2027954;-73
2021/06/22 04:39:10;;;;;;;71.32;17.08;;;;;;;25.04;61.48;99102.27;370988;108;1964019;-72
2021/06/22 04:40:22;;;;;;;73.13;18.56;;;;;;;25.17;61.01;99104.98;393845;104;1985925;-71
2021/06/22 04:41:27;;;;;;;70.66;17.77;;;;;;;25.09;61.04;99102.95;376415;107;1964025;-71
2021/06/22 04:42:40;;;;;;;79.55;16.36;;;;;;;25.23;60.61;99102.89;355222;104;2760886;-70
2021/06/22 04:43:45;;;;;;;68.36;16.53;;;;;;;25.13;60.55;99098.41;324526;107;2234865;-72
2021/06/22 04:45:09;;;;;;;74.44;16.02;;;;;;;25.14;60.42;99100.06;375740;107;1962992;-73
2021/06/22 04:46:21;;;;;;;55.17;16.12;;;;;;;25.31;60.22;99098.55;365907;104;2024942;-73
2021/06/22 04:47:27;;;;;;;67.39;15.63;;;;;;;25.24;59.78;99096.22;359223;106;1970016;-72
2021/06/22 04:48:39;;;;;;;66.94;15.66;;;;;;;25.40;58.90;99099.39;393720;104;1986032;-72
2021/06/22 04:49:44;;;;;;;55.52;14.26;;;;;;;25.31;59.09;99091.06;374261;106;1963957;-73
2021/06/22 04:51:08;;;;;;;53.12;13.67;;;;;;;25.35;58.31;99103.13;315672;107;2492994;-72
2021/06/22 04:52:31;;;;;;;64.76;16.56;;;;;;;25.52;57.63;99107.11;400208;101;2072057;-72
2021/06/22 04:53:37;;;;;;;60.20;13.08;;;;;;;25.45;57.84;99099.25;375171;106;1961987;-72
2021/06/22 04:54:42;;;;;;;60.88;14.04;;;;;;;25.48;56.99;99097.80;375936;106;1961971;-72
2021/06/22 04:55:54;;;;;;;50.99;14.01;;;;;;;25.62;56.97;99102.11;403866;101;1986880;-74
2021/06/22 04:57:00;;;;;;;64.48;14.06;;;;;;;25.54;56.93;99093.78;381173;103;1962973;-72
2021/06/22 04:58:05;;;;;;;55.48;14.80;;;;;;;25.56;56.95;99100.63;373539;103;2883069;-73
2021/06/22 04:59:18;;;;;;;65.12;15.25;;;;;;;25.74;56.73;99100.67;394153;104;2071999;-72
2021/06/22 05:00:24;;;;;;;49.67;12.21;;;;;;;25.66;56.66;99103.08;381966;105;1961999;-73
2021/06/22 05:01:37;;;;;;;63.66;15.40;;;;;;;25.82;55.85;99086.86;393378;104;2071990;-73
2021/06/22 05:02:45;;;;;;;63.13;15.26;;;;;;;25.76;55.95;99092.88;309612;105;2382995;-73
2021/06/22 05:03:58;;;;;;;55.82;14.08;;;;;;;25.90;55.87;99085.28;392500;104;1986759;-71
2021/06/22 05:05:04;;;;;;;50.34;13.19;;;;;;;25.83;55.83;99082.16;374790;106;1962067;-73
2021/06/22 05:06:29;;;;;;;50.44;11.52;;;;;;;25.86;55.41;99084.31;368496;107;1964948;-72
2021/06/22 05:07:41;;;;;;;46.32;12.33;;;;;;;26.03;54.42;99076.03;379282;106;2071928;-73
2021/06/22 05:08:47;;;;;;;57.48;12.39;;;;;;;25.97;53.84;99076.52;363622;110;1961940;-73
2021/06/22 05:09:59;;;;;;;47.91;13.24;;;;;;;26.12;53.82;99084.38;392803;104;2071915;-73
2021/06/22 05:11:06;;;;;;;51.33;13.13;;;;;;;26.05;53.77;99076.53;374435;106;1962046;-72
2021/06/22 05:12:29;;;;;;;46.11;11.50;;;;;;;26.10;53.78;99081.11;372865;107;1962054;-71
2021/06/22 05:13:42;;;;;;;52.92;11.10;;;;;;;26.27;53.51;99080.30;399220;104;1985909;-72
2021/06/22 05:14:48;;;;;;;47.09;11.41;;;;;;;26.19;53.58;99075.57;375021;103;1960652;-71
2021/06/22 05:16:00;;;;;;;52.22;12.72;;;;;;;26.34;53.23;99071.52;389692;103;2071980;-72
2021/06/22 05:17:06;;;;;;;37.16;10.72;;;;;;;26.24;53.35;99076.22;376756;106;1960868;-72
2021/06/22 05:18:11;;;;;;;47.77;12.49;;;;;;;26.26;53.15;99073.14;376684;105;1960945;-72
2021/06/22 05:19:17;;;;;;;38.45;11.97;;;;;;;26.30;53.18;99076.88;370834;107;1960889;-73
2021/06/22 05:20:30;;;;;;;49.21;12.45;;;;;;;26.45;52.49;99078.36;392576;103;2070778;-72
2021/06/22 05:21:35;;;;;;;54.41;11.62;;;;;;;26.36;52.22;99077.52;366847;107;2950991;-72
2021/06/22 05:22:47;;;;;;;33.94;9.55;;;;;;;26.50;52.18;99072.66;392312;104;1985857;-71
2021/06/22 05:23:52;;;;;;;46.27;10.23;;;;;;;26.43;52.08;99066.78;354342;107;1961971;-73
2021/06/22 05:25:15;;;;;;;40.54;11.28;;;;;;;26.48;51.79;99072.16;368099;103;1959682;-72
2021/06/22 05:26:28;;;;;;;45.99;12.17;;;;;;;26.60;50.44;99068.78;358422;103;2664032;-73